UDYZ/EVN METAR and TAF weather

Enter ICAO airport designator
Station Type Date Time Source
UDYZ METAR 2019/05/23 18:30 UTC NOAA

UDYZ 231830Z 23004KT 9999 SCT040CB 19/13 Q1014 R09/010070 NOSIG


Station Type Date Time Source
UDYZ Decoded METAR 2019/05/23 18:30 UTC NOAA

Station name not available
May 23, 2019 - 02:30 PM EDT / 2019.05.23 1830 UTC
Wind: from the SW (230 degrees) at 5 MPH (4 KT):0
Visibility: greater than 7 mile(s):0
Sky conditions: partly cloudy
Weather: Cumulonimbus clouds observed
Temperature: 66 F (19 C)
Dew Point: 55 F (13 C)
Relative Humidity: 68%
Pressure (altimeter): 29.94 in. Hg (1014 hPa)
ob: UDYZ 231830Z 23004KT 9999 SCT040CB 19/13 Q1014 R09/010070 NOSIG
cycle: 18

Station Type Date Time Source
UDYZ TAF 2019/05/23 18:00 UTC NOAA

TAF UDYZ 231700Z 2318/2418 04006KT 9999 SCT040 BKN100 TRMPO 2318/2403 VRB16G26KT -TSRA BKN030CB

Example: see airport list